createdAt,value
2022-08-05T00:00:22.949Z,62.45
2022-08-05T00:01:28.005Z,62.94
2022-08-05T00:02:22.972Z,63.37
2022-08-05T00:03:22.861Z,65.17
2022-08-05T00:04:22.832Z,66.17
2022-08-05T00:06:03.227Z,67.19
2022-08-05T00:06:30.706Z,67.19
2022-08-05T00:07:58.873Z,66.53
2022-08-05T00:08:34.920Z,67.53
2022-08-05T00:09:22.795Z,68.13
2022-08-05T00:10:22.747Z,67.83
2022-08-05T00:11:30.651Z,68.13
2022-08-05T00:12:22.788Z,68.16
2022-08-05T00:13:38.421Z,67.16
2022-08-05T00:14:22.714Z,67.66
2022-08-05T00:15:55.519Z,67.96
2022-08-05T00:16:36.417Z,68.06
2022-08-05T00:17:22.692Z,68.06
2022-08-05T00:18:22.909Z,68.06
2022-08-05T00:19:24.692Z,67.86
2022-08-05T00:20:22.627Z,68.16
2022-08-05T00:21:22.692Z,68.26
2022-08-05T00:22:22.594Z,68.26
2022-08-05T00:23:44.456Z,68.46
2022-08-05T00:24:24.686Z,68.46
2022-08-05T00:25:22.585Z,68.46
2022-08-05T00:26:22.628Z,68.26
2022-08-05T00:27:22.677Z,68.86
2022-08-05T00:28:29.686Z,67.76
2022-08-05T00:29:25.787Z,67.96
2022-08-05T00:30:29.248Z,67.76
2022-08-05T00:31:53.635Z,67.46
2022-08-05T00:32:22.479Z,66.86
2022-08-05T00:34:56.128Z,65.86
2022-08-05T00:35:11.074Z,65.86
2022-08-05T00:35:22.457Z,66.26
2022-08-05T00:37:10.804Z,67.16
2022-08-05T00:37:22.447Z,67.96
2022-08-05T00:38:28.910Z,68.16
2022-08-05T00:39:22.483Z,69.56
2022-08-05T00:40:27.852Z,70.46
2022-08-05T00:41:22.383Z,71.76
2022-08-05T00:42:31.595Z,71.56
2022-08-05T00:43:22.344Z,70.56
2022-08-05T00:44:23.385Z,71.29
2022-08-05T00:45:25.008Z,72.19
2022-08-05T00:46:42.686Z,72.49
2022-08-05T00:47:22.427Z,72.49
2022-08-05T00:48:31.319Z,73.39
2022-08-05T00:49:22.271Z,72.33
2022-08-05T00:50:22.269Z,72.03
2022-08-05T00:51:51.539Z,73.22
2022-08-05T00:52:28.445Z,73.06
2022-08-05T00:54:00.971Z,73.96
2022-08-05T00:54:22.218Z,74.76
2022-08-05T00:55:22.191Z,75.00
2022-08-05T00:56:22.984Z,77.60
2022-08-05T00:57:22.400Z,77.60
2022-08-05T00:58:22.123Z,77.10
2022-08-05T00:59:22.145Z,77.30
2022-08-05T01:00:22.137Z,77.10
2022-08-05T01:01:24.712Z,76.80
2022-08-05T01:02:22.092Z,75.74
2022-08-05T01:03:23.023Z,76.43
2022-08-05T01:04:26.743Z,77.84
2022-08-05T01:05:22.067Z,77.54
2022-08-05T01:06:22.053Z,77.54
2022-08-05T01:07:22.032Z,77.44
2022-08-05T01:08:30.768Z,77.14
2022-08-05T01:09:22.002Z,78.24
2022-08-05T01:10:21.974Z,76.84
2022-08-05T01:11:24.187Z,77.04
2022-08-05T01:12:21.990Z,78.34
2022-08-05T01:13:22.434Z,79.28
2022-08-05T01:14:27.826Z,78.78
2022-08-05T01:15:36.292Z,80.08
2022-08-05T01:16:26.502Z,81.79
2022-08-05T01:17:22.073Z,80.92
2022-08-05T01:18:21.915Z,80.42
2022-08-05T01:19:30.219Z,81.23
2022-08-05T01:20:28.347Z,80.32
2022-08-05T01:21:23.092Z,82.12
2022-08-05T01:22:24.474Z,81.12
2022-08-05T01:23:23.306Z,81.96
2022-08-05T01:24:22.081Z,80.92
2022-08-05T01:25:21.877Z,80.72
2022-08-05T01:26:21.773Z,81.52
2022-08-05T01:27:22.165Z,82.03
2022-08-05T01:28:21.767Z,82.26
2022-08-05T01:29:22.938Z,83.57
2022-08-05T01:30:34.099Z,84.97
2022-08-05T01:31:21.733Z,85.61
2022-08-05T01:32:21.684Z,86.52
2022-08-05T01:33:21.705Z,87.32
2022-08-05T01:34:21.659Z,88.07
2022-08-05T01:35:51.153Z,89.27
2022-08-05T01:36:21.723Z,90.68
2022-08-05T01:37:24.621Z,90.42
2022-08-05T01:38:26.797Z,88.81
2022-08-05T01:39:45.884Z,88.11
2022-08-05T01:40:21.600Z,87.37
2022-08-05T01:41:21.860Z,85.75
2022-08-05T01:42:21.619Z,85.66
2022-08-05T01:43:21.926Z,84.11
2022-08-05T01:44:21.545Z,83.71
2022-08-05T01:45:21.521Z,85.02
2022-08-05T01:46:41.406Z,84.71
2022-08-05T01:47:21.827Z,85.52
2022-08-05T01:48:21.533Z,85.22
2022-08-05T01:49:23.011Z,85.02
2022-08-05T01:50:28.841Z,85.02
2022-08-05T01:51:21.449Z,85.52
2022-08-05T01:52:21.442Z,86.66
2022-08-05T01:53:54.557Z,87.66
2022-08-05T01:54:25.566Z,88.17
2022-08-05T01:55:21.394Z,88.37
2022-08-05T01:58:29.946Z,89.67
2022-08-05T01:58:45.785Z,90.48
2022-08-05T01:58:51.270Z,91.02
2022-08-05T01:59:50.843Z,89.51
2022-08-05T02:00:50.808Z,88.61
2022-08-05T02:01:50.809Z,88.07
2022-08-05T02:02:54.540Z,87.77
2022-08-05T02:03:50.739Z,89.98
2022-08-05T02:04:50.748Z,88.27
2022-08-05T02:05:50.751Z,87.73
2022-08-05T02:06:50.732Z,87.02
2022-08-05T02:08:00.270Z,87.12
2022-08-05T02:08:58.408Z,84.51
2022-08-05T02:09:50.953Z,80.16
2022-08-05T02:10:50.667Z,80.62
2022-08-05T02:11:52.540Z,78.42
2022-08-05T02:12:51.018Z,76.17
2022-08-05T02:13:53.600Z,75.34
2022-08-05T02:14:50.627Z,72.36
2022-08-05T02:15:50.600Z,71.03
2022-08-05T02:16:52.948Z,72.13
2022-08-05T02:18:32.276Z,73.13
2022-08-05T02:18:50.575Z,73.83
2022-08-05T02:19:50.544Z,78.67
2022-08-05T02:20:50.543Z,82.11
2022-08-05T02:21:50.533Z,85.19
2022-08-05T02:22:50.523Z,88.39
2022-08-05T02:23:50.529Z,91.14
2022-08-05T02:24:51.292Z,93.69
2022-08-05T02:25:50.682Z,96.25
2022-08-05T02:26:53.853Z,97.60
2022-08-05T02:27:58.099Z,98.71
2022-08-05T02:28:50.440Z,99.05
2022-08-05T02:29:59.174Z,99.15
2022-08-05T02:30:54.580Z,99.46
2022-08-05T02:31:50.400Z,98.65
2022-08-05T02:32:50.379Z,99.15
2022-08-05T02:33:57.156Z,98.55
2022-08-05T02:34:54.661Z,98.25
2022-08-05T02:35:56.343Z,98.05
2022-08-05T02:36:50.344Z,97.55
2022-08-05T02:37:54.090Z,97.44
2022-08-05T02:38:52.979Z,96.84
2022-08-05T02:39:51.762Z,97.34
2022-08-05T02:40:50.281Z,97.44
2022-08-05T02:41:58.015Z,97.44
2022-08-05T02:42:52.958Z,97.29
2022-08-05T02:44:02.459Z,97.64
2022-08-05T02:44:50.268Z,96.94
2022-08-05T02:45:52.688Z,97.39
2022-08-05T02:46:58.892Z,97.14
2022-08-05T02:48:06.687Z,97.04
2022-08-05T02:48:50.189Z,97.04
2022-08-05T02:49:50.198Z,97.14
2022-08-05T02:50:50.144Z,97.34
2022-08-05T02:52:03.782Z,97.49
2022-08-05T02:52:50.130Z,97.39
2022-08-05T02:53:50.113Z,97.55
2022-08-05T02:54:50.917Z,97.55
2022-08-05T02:55:54.856Z,97.55
2022-08-05T02:56:50.102Z,97.75
2022-08-05T02:58:20.176Z,97.75
2022-08-05T02:58:51.183Z,97.85
2022-08-05T02:59:51.900Z,97.85
2022-08-05T03:00:50.057Z,98.15
2022-08-05T03:01:50.101Z,98.15
2022-08-05T03:02:49.989Z,98.35
2022-08-05T03:04:02.895Z,98.15
2022-08-05T03:04:53.328Z,98.45
2022-08-05T03:06:56.814Z,98.55
2022-08-05T03:07:03.675Z,98.70
2022-08-05T03:08:00.869Z,98.80
2022-08-05T03:08:52.197Z,99.10
2022-08-05T03:09:51.885Z,99.20
2022-08-05T03:11:50.058Z,98.90
2022-08-05T03:12:00.448Z,99.10
2022-08-05T03:12:51.948Z,98.75
2022-08-05T03:13:51.781Z,98.65
2022-08-05T03:14:49.867Z,98.45
2022-08-05T03:15:49.807Z,98.35
2022-08-05T03:16:49.839Z,97.95
2022-08-05T03:17:49.809Z,98.05
2022-08-05T03:18:49.781Z,98.25
2022-08-05T03:19:49.835Z,98.25
2022-08-05T03:20:49.755Z,97.95
2022-08-05T03:21:50.075Z,97.95
2022-08-05T03:22:50.017Z,98.05
2022-08-05T03:23:49.706Z,98.05
2022-08-05T03:24:51.092Z,97.95
2022-08-05T03:26:03.650Z,97.95
2022-08-05T03:26:49.709Z,98.05
2022-08-05T03:27:59.676Z,97.34
2022-08-05T03:28:49.664Z,97.50
2022-08-05T03:30:07.661Z,97.50
2022-08-05T03:30:49.636Z,96.39
2022-08-05T03:31:57.376Z,96.39
2022-08-05T03:32:49.643Z,96.50
2022-08-05T03:33:53.012Z,96.59
2022-08-05T03:34:51.337Z,96.59
2022-08-05T03:35:49.878Z,96.39
2022-08-05T03:36:49.499Z,96.80
2022-08-05T03:37:49.466Z,96.09
2022-08-05T03:38:53.364Z,95.59
2022-08-05T03:40:01.172Z,95.69
2022-08-05T03:40:49.486Z,95.49
2022-08-05T03:41:49.417Z,95.39
2022-08-05T03:42:52.253Z,95.69
2022-08-05T03:44:09.534Z,95.59
2022-08-05T03:44:49.390Z,95.89
2022-08-05T03:45:57.695Z,94.38
2022-08-05T03:46:49.363Z,94.48
2022-08-05T03:47:49.434Z,94.28
2022-08-05T03:48:49.343Z,94.28
2022-08-05T03:49:51.870Z,94.59
2022-08-05T03:50:49.309Z,94.48
2022-08-05T03:52:36.958Z,94.38
2022-08-05T03:56:05.472Z,94.48
2022-08-05T03:56:27.795Z,94.08
2022-08-05T03:56:37.758Z,94.38
2022-08-05T03:57:34.963Z,94.18
2022-08-05T03:58:29.119Z,94.38
2022-08-05T03:59:29.193Z,93.98
2022-08-05T04:00:26.814Z,93.98
2022-08-05T04:01:26.767Z,94.18
2022-08-05T04:02:37.484Z,94.59
2022-08-05T04:03:28.890Z,94.38
2022-08-05T04:04:26.712Z,94.18
2022-08-05T04:05:27.958Z,94.08
2022-08-05T04:06:26.721Z,94.18
2022-08-05T04:07:26.744Z,93.78
2022-08-05T04:08:35.173Z,93.84
2022-08-05T04:09:26.828Z,93.43
2022-08-05T04:10:27.786Z,93.43
2022-08-05T04:11:47.675Z,93.63
2022-08-05T04:12:26.616Z,93.84
2022-08-05T04:13:27.850Z,93.74
2022-08-05T04:14:29.864Z,93.54
2022-08-05T04:15:26.550Z,93.84
2022-08-05T04:16:32.667Z,93.74
2022-08-05T04:17:26.612Z,93.93
2022-08-05T04:18:26.535Z,93.74
2022-08-05T04:19:26.500Z,93.93
2022-08-05T04:20:26.520Z,93.54
2022-08-05T04:22:09.812Z,93.84
2022-08-05T04:22:26.636Z,95.75
2022-08-05T04:23:58.345Z,96.25
2022-08-05T04:24:27.610Z,97.50
2022-08-05T04:25:57.805Z,97.90
2022-08-05T04:26:26.428Z,98.20
2022-08-05T04:27:41.814Z,99.11
2022-08-05T04:28:31.034Z,99.86
2022-08-05T04:29:27.105Z,99.99
2022-08-05T04:30:26.590Z,99.99
2022-08-05T04:31:27.583Z,99.99
2022-08-05T04:32:33.299Z,99.99
2022-08-05T04:33:36.387Z,99.99
2022-08-05T04:34:32.625Z,99.99
2022-08-05T04:35:26.313Z,99.99
2022-08-05T04:36:45.986Z,99.99
2022-08-05T04:38:02.880Z,99.99
2022-08-05T04:38:39.735Z,99.99
2022-08-05T04:39:27.626Z,99.66
2022-08-05T04:40:26.253Z,99.99
2022-08-05T04:41:36.887Z,99.99
2022-08-05T04:42:26.223Z,99.99
2022-08-05T04:43:26.259Z,99.99
2022-08-05T04:44:29.911Z,99.99
2022-08-05T04:45:48.365Z,99.99
2022-08-05T04:46:27.866Z,99.99
2022-08-05T04:47:26.484Z,98.85
2022-08-05T04:48:27.706Z,97.64
2022-08-05T04:49:38.767Z,96.84
2022-08-05T04:50:34.315Z,97.04
2022-08-05T04:51:26.095Z,97.34
2022-08-05T04:52:27.716Z,97.95
2022-08-05T04:53:26.087Z,97.04
2022-08-05T04:54:26.070Z,97.44
2022-08-05T04:56:15.418Z,97.24
2022-08-05T04:56:40.034Z,97.75
2022-08-05T04:57:28.526Z,98.10
2022-08-05T04:58:26.003Z,98.19
2022-08-05T04:59:38.845Z,98.80
2022-08-05T05:00:26.034Z,98.80
2022-08-05T05:02:06.372Z,99.10
2022-08-05T05:02:41.457Z,99.10
2022-08-05T05:03:25.963Z,98.80
2022-08-05T05:04:25.956Z,99.10
2022-08-05T05:05:28.823Z,99.20
2022-08-05T05:06:39.617Z,99.60
2022-08-05T05:07:29.357Z,98.85
2022-08-05T05:08:30.127Z,99.35
2022-08-05T05:09:25.860Z,99.45
2022-08-05T05:10:25.868Z,99.65
2022-08-05T05:11:41.474Z,99.45
2022-08-05T05:12:27.527Z,99.35
2022-08-05T05:13:25.844Z,99.99
2022-08-05T05:14:27.786Z,99.99
2022-08-05T05:15:57.471Z,99.99
2022-08-05T05:16:30.404Z,99.99
2022-08-05T05:17:56.671Z,99.99
2022-08-05T05:18:31.394Z,99.99
2022-08-05T05:19:27.252Z,99.99
2022-08-05T05:20:28.355Z,99.99
2022-08-05T05:21:27.218Z,99.99
2022-08-05T05:22:26.352Z,99.99
2022-08-05T05:23:25.756Z,99.99
2022-08-05T05:24:35.811Z,99.99
2022-08-05T05:25:40.305Z,99.99
2022-08-05T05:26:28.677Z,99.99
2022-08-05T05:27:41.478Z,99.99
2022-08-05T05:28:25.662Z,99.99
2022-08-05T05:30:03.496Z,99.71
2022-08-05T05:30:29.533Z,99.40
2022-08-05T05:31:25.569Z,99.99
2022-08-05T05:32:24.607Z,99.99
2022-08-05T05:33:25.555Z,99.99
2022-08-05T05:34:26.918Z,99.99
2022-08-05T05:35:25.554Z,99.99
2022-08-05T05:36:25.537Z,99.99
2022-08-05T05:37:37.286Z,99.99
2022-08-05T05:38:27.458Z,99.99
2022-08-05T05:39:25.587Z,99.99
2022-08-05T05:40:26.133Z,99.99
2022-08-05T05:41:25.483Z,99.99
2022-08-05T05:42:25.438Z,99.99
2022-08-05T05:43:54.546Z,99.99
2022-08-05T05:44:37.537Z,99.99
2022-08-05T05:45:25.424Z,99.99
2022-08-05T05:46:25.382Z,99.99
2022-08-05T05:47:30.180Z,99.99
2022-08-05T05:48:27.526Z,99.99
2022-08-05T05:49:25.327Z,99.99
2022-08-05T05:50:25.863Z,99.99
2022-08-05T05:51:25.700Z,99.99
2022-08-05T05:52:28.402Z,99.99
2022-08-05T05:53:25.293Z,99.99
2022-08-05T05:54:49.796Z,99.99
2022-08-05T05:55:25.310Z,99.99
2022-08-05T05:56:26.190Z,99.90
2022-08-05T05:57:25.340Z,99.90
2022-08-05T05:58:31.792Z,99.99
2022-08-05T05:59:25.219Z,99.71
2022-08-05T06:00:27.593Z,99.99
2022-08-05T06:01:25.226Z,99.99
2022-08-05T06:02:36.834Z,99.99
2022-08-05T06:03:39.803Z,99.99
2022-08-05T06:04:25.282Z,99.99
2022-08-05T06:05:25.199Z,99.80
2022-08-05T06:06:25.126Z,99.40
2022-08-05T06:07:25.238Z,98.60
2022-08-05T06:08:31.515Z,98.50
2022-08-05T06:10:00.124Z,98.90
2022-08-05T06:10:25.058Z,98.80
2022-08-05T06:11:25.083Z,98.70
2022-08-05T06:12:27.147Z,98.80
2022-08-05T06:13:25.023Z,98.30
2022-08-05T06:14:25.000Z,98.30
2022-08-05T06:15:24.994Z,98.90
2022-08-05T06:16:37.334Z,98.50
2022-08-05T06:17:31.130Z,99.10
2022-08-05T06:18:31.306Z,99.20
2022-08-05T06:19:26.292Z,99.20
2022-08-05T06:20:24.955Z,98.10
2022-08-05T06:21:24.949Z,97.79
2022-08-05T06:22:24.933Z,98.30
2022-08-05T06:23:24.923Z,97.99
2022-08-05T06:24:27.223Z,97.89
2022-08-05T06:26:12.661Z,97.69
2022-08-05T06:26:25.722Z,98.10
2022-08-05T06:28:12.353Z,97.34
2022-08-05T06:28:28.456Z,97.44
2022-08-05T06:29:46.890Z,97.14
2022-08-05T06:30:25.224Z,96.24
2022-08-05T06:31:30.448Z,95.43
2022-08-05T06:32:28.815Z,95.79
2022-08-05T06:33:33.442Z,95.59
2022-08-05T06:34:24.747Z,94.38
2022-08-05T06:36:07.914Z,94.18
2022-08-05T06:36:25.940Z,94.18
2022-08-05T06:37:57.951Z,94.89
2022-08-05T06:38:35.927Z,95.79
2022-08-05T06:39:26.947Z,95.99
2022-08-05T06:40:27.839Z,96.39
2022-08-05T06:41:24.687Z,96.89
2022-08-05T06:42:25.342Z,97.90
2022-08-05T06:43:51.570Z,97.95
2022-08-05T06:44:24.640Z,97.90
2022-08-05T06:46:03.444Z,97.90
2022-08-05T06:46:30.096Z,98.35
2022-08-05T06:48:11.971Z,98.80
2022-08-05T06:48:58.834Z,99.11
2022-08-05T06:50:00.539Z,99.11
2022-08-05T06:50:24.538Z,99.31
2022-08-05T06:51:29.999Z,99.71
2022-08-05T06:52:37.153Z,99.31
2022-08-05T06:53:28.540Z,99.11
2022-08-05T06:54:25.919Z,99.21
2022-08-05T06:55:24.486Z,99.31
2022-08-05T06:56:26.321Z,99.21
2022-08-05T06:58:02.824Z,99.61
2022-08-05T06:58:35.288Z,99.11
2022-08-05T06:59:24.437Z,99.41
2022-08-05T07:00:24.924Z,99.41
2022-08-05T07:01:32.095Z,98.80
2022-08-05T07:02:24.390Z,98.91
2022-08-05T07:03:27.971Z,98.91
2022-08-05T07:04:24.354Z,98.50
2022-08-05T07:05:37.000Z,94.89
2022-08-05T07:06:24.346Z,93.33
2022-08-05T07:07:35.596Z,93.54
2022-08-05T07:08:25.188Z,94.74
2022-08-05T07:09:24.944Z,94.39
2022-08-05T07:10:30.450Z,94.20
2022-08-05T07:11:25.428Z,94.70
2022-08-05T07:12:24.248Z,94.09
2022-08-05T07:13:55.061Z,94.45
2022-08-05T07:14:29.661Z,91.94
2022-08-05T07:15:34.511Z,93.24
2022-08-05T07:17:57.195Z,91.74
2022-08-05T07:18:08.880Z,92.14
2022-08-05T07:18:27.420Z,92.04
2022-08-05T07:20:10.529Z,92.84
2022-08-05T07:20:37.087Z,92.80
2022-08-05T07:21:25.655Z,93.40
2022-08-05T07:22:29.078Z,92.40
2022-08-05T07:23:26.141Z,92.20
2022-08-05T07:24:24.098Z,91.09
2022-08-05T07:25:55.205Z,91.60
2022-08-05T07:26:25.669Z,91.80
2022-08-05T07:27:27.723Z,90.89
2022-08-05T07:28:24.068Z,91.89
2022-08-05T07:30:21.864Z,90.55
2022-08-05T07:30:34.027Z,90.25
2022-08-05T07:31:41.056Z,90.45
2022-08-05T07:32:26.123Z,89.34
2022-08-05T07:33:36.904Z,89.65
2022-08-05T07:34:28.420Z,90.05
2022-08-05T07:36:03.567Z,90.65
2022-08-05T07:36:23.937Z,91.05
2022-08-05T07:37:24.195Z,91.85
2022-08-05T07:38:32.174Z,92.91
2022-08-05T07:40:03.691Z,92.46
2022-08-05T07:40:31.710Z,91.96
2022-08-05T07:42:14.194Z,91.85
2022-08-05T07:42:34.074Z,92.85
2022-08-05T07:43:24.004Z,93.01
2022-08-05T07:44:23.901Z,92.51
2022-08-05T07:45:56.803Z,91.97
2022-08-05T07:46:25.508Z,90.96
2022-08-05T07:47:25.854Z,91.06
2022-08-05T07:49:00.576Z,90.82
2022-08-05T07:49:23.785Z,89.56
2022-08-05T07:50:29.021Z,88.86
2022-08-05T07:51:37.159Z,89.52
2022-08-05T07:52:23.915Z,87.92
2022-08-05T07:53:23.735Z,86.32
2022-08-05T07:54:26.364Z,86.71
2022-08-05T07:56:05.159Z,85.85
2022-08-05T07:57:00.379Z,86.96
2022-08-05T07:57:55.165Z,86.55
2022-08-05T07:58:54.841Z,86.46
2022-08-05T07:59:38.360Z,85.35
2022-08-05T08:00:23.637Z,84.15
2022-08-05T08:01:23.683Z,84.85
2022-08-05T08:02:26.332Z,85.35
2022-08-05T08:03:23.596Z,85.85
2022-08-05T08:04:37.349Z,84.69
2022-08-05T08:05:23.580Z,85.49
2022-08-05T08:06:23.558Z,84.89
2022-08-05T08:07:23.575Z,86.46
2022-08-05T08:08:23.527Z,84.75
2022-08-05T08:09:23.542Z,84.95
2022-08-05T08:10:23.595Z,84.55
2022-08-05T08:11:27.563Z,85.01
2022-08-05T08:12:33.540Z,84.61
2022-08-05T08:13:28.971Z,84.07
2022-08-05T08:14:23.441Z,83.13
2022-08-05T08:15:37.238Z,79.73
2022-08-05T08:16:50.914Z,80.73
2022-08-05T08:17:23.697Z,80.69
2022-08-05T08:18:23.387Z,82.59
2022-08-05T08:20:43.507Z,82.55
2022-08-05T08:21:09.448Z,82.85
2022-08-05T08:21:23.382Z,81.56
2022-08-05T08:22:23.336Z,81.71
2022-08-05T08:24:02.054Z,79.32
2022-08-05T08:24:23.316Z,78.36
2022-08-05T08:25:26.990Z,80.59
2022-08-05T08:26:27.007Z,81.29
2022-08-05T08:27:23.551Z,80.19
2022-08-05T08:28:37.016Z,82.63
2022-08-05T08:30:03.779Z,83.07
2022-08-05T08:30:32.616Z,81.37
2022-08-05T08:31:23.239Z,82.27
2022-08-05T08:32:28.192Z,83.21
2022-08-05T08:33:23.213Z,82.71
2022-08-05T08:34:30.808Z,81.51
2022-08-05T08:35:23.185Z,81.61
2022-08-05T08:36:38.197Z,81.77
2022-08-05T08:37:28.006Z,81.57
2022-08-05T08:38:35.175Z,81.23
2022-08-05T08:39:23.179Z,81.43
2022-08-05T08:40:23.107Z,80.65
2022-08-05T08:41:26.308Z,80.51
2022-08-05T08:42:34.052Z,78.18
2022-08-05T08:45:23.884Z,77.82
2022-08-05T08:45:31.162Z,76.78
2022-08-05T08:45:36.303Z,78.48
2022-08-05T08:46:36.259Z,75.59
2022-08-05T08:48:06.434Z,75.68
2022-08-05T08:49:02.903Z,76.28
2022-08-05T08:50:14.161Z,76.68
2022-08-05T08:51:22.176Z,76.02
2022-08-05T08:52:13.661Z,77.22
2022-08-05T08:52:36.200Z,76.72
2022-08-05T08:53:36.225Z,76.12
2022-08-05T08:54:36.468Z,75.32
2022-08-05T08:56:04.047Z,77.51
2022-08-05T08:56:36.178Z,76.76
2022-08-05T08:57:41.981Z,76.72
2022-08-05T08:58:43.949Z,77.02
2022-08-05T08:59:36.124Z,76.62
2022-08-05T09:00:36.137Z,76.76
2022-08-05T09:01:36.124Z,77.79
2022-08-05T09:02:36.066Z,77.99
2022-08-05T09:03:45.077Z,78.79
2022-08-05T09:04:36.095Z,77.86
2022-08-05T09:05:38.209Z,76.35
2022-08-05T09:06:36.194Z,77.06
2022-08-05T09:07:40.102Z,77.32
2022-08-05T09:08:35.986Z,76.28
2022-08-05T09:09:36.011Z,75.48
2022-08-05T09:10:35.958Z,75.48
2022-08-05T09:11:52.456Z,75.18
2022-08-05T09:12:35.960Z,74.98
2022-08-05T09:14:01.028Z,75.42
2022-08-05T09:14:56.476Z,76.45
2022-08-05T09:15:36.780Z,76.95
2022-08-05T09:16:35.895Z,76.86
2022-08-05T09:17:40.924Z,77.69
2022-08-05T09:18:38.971Z,78.19
2022-08-05T09:19:36.293Z,78.49
2022-08-05T09:20:37.477Z,78.93
2022-08-05T09:22:23.393Z,79.73
2022-08-05T09:22:36.266Z,79.93
2022-08-05T09:23:37.272Z,81.07
2022-08-05T09:24:35.838Z,81.77
2022-08-05T09:26:01.914Z,82.21
2022-08-05T09:26:35.749Z,82.71
2022-08-05T09:28:04.669Z,82.85
2022-08-05T09:28:35.730Z,84.95
2022-08-05T09:29:35.725Z,86.30
2022-08-05T09:30:35.754Z,88.40
2022-08-05T09:32:40.057Z,88.14
2022-08-05T09:32:47.490Z,89.95
2022-08-05T09:33:35.692Z,90.49
2022-08-05T09:34:35.650Z,91.19
2022-08-05T09:35:35.666Z,90.99
2022-08-05T09:36:35.692Z,91.39
2022-08-05T09:38:16.854Z,92.30
2022-08-05T09:38:35.599Z,92.10
2022-08-05T09:39:45.026Z,91.80
2022-08-05T09:40:35.577Z,91.45
2022-08-05T09:41:38.280Z,90.55
2022-08-05T09:42:35.566Z,89.90
2022-08-05T09:43:40.804Z,91.51
2022-08-05T09:44:35.538Z,89.96
2022-08-05T09:46:07.639Z,88.62
2022-08-05T09:46:35.498Z,87.02
2022-08-05T09:47:55.661Z,87.71
2022-08-05T09:48:35.473Z,88.62
2022-08-05T09:49:54.762Z,88.02
2022-08-05T09:50:38.711Z,88.78
2022-08-05T09:51:36.591Z,87.43
2022-08-05T09:52:35.489Z,86.47
2022-08-05T09:53:53.885Z,87.27
2022-08-05T09:54:35.404Z,87.23
2022-08-05T09:55:56.368Z,85.59
2022-08-05T09:56:35.377Z,85.49
2022-08-05T09:57:39.474Z,86.69
2022-08-05T09:58:35.355Z,84.53
2022-08-05T09:59:37.142Z,85.73
2022-08-05T10:00:35.321Z,85.93
2022-08-05T10:01:35.396Z,85.68
2022-08-05T10:02:35.310Z,86.68
2022-08-05T10:03:56.589Z,87.71
2022-08-05T10:04:35.270Z,86.52
2022-08-05T10:05:35.277Z,88.16
2022-08-05T10:06:35.248Z,89.00
2022-08-05T10:08:10.680Z,89.40
2022-08-05T10:08:42.527Z,89.30
2022-08-05T10:09:45.156Z,89.90
2022-08-05T10:10:35.204Z,90.06
2022-08-05T10:11:35.431Z,89.62
2022-08-05T10:12:35.576Z,87.82
2022-08-05T10:13:45.593Z,87.68
2022-08-05T10:14:35.195Z,87.27
2022-08-05T10:15:35.116Z,85.93
2022-08-05T10:16:37.852Z,84.99
2022-08-05T10:17:37.892Z,84.55
2022-08-05T10:18:35.116Z,83.65
2022-08-05T10:20:04.549Z,82.01
2022-08-05T10:20:35.069Z,81.77
2022-08-05T10:21:35.182Z,81.67
2022-08-05T10:22:37.672Z,81.37
2022-08-05T10:23:35.021Z,79.88
2022-08-05T10:24:35.072Z,81.57
2022-08-05T10:25:34.978Z,79.84
2022-08-05T10:26:34.981Z,79.94
2022-08-05T10:28:09.743Z,79.24
2022-08-05T10:28:36.587Z,78.44
2022-08-05T10:31:21.102Z,78.34
2022-08-05T10:33:01.735Z,77.81
2022-08-05T10:33:09.249Z,76.67
2022-08-05T10:34:07.032Z,75.48
2022-08-05T10:35:06.009Z,76.07
2022-08-05T10:36:05.949Z,76.34
2022-08-05T10:37:05.933Z,77.98
2022-08-05T10:38:05.939Z,79.91
2022-08-05T10:39:11.903Z,79.02
2022-08-05T10:40:17.473Z,80.02
2022-08-05T10:41:05.973Z,79.55
2022-08-05T10:42:05.953Z,78.52
2022-08-05T10:43:05.835Z,78.31
2022-08-05T10:44:05.847Z,78.52
2022-08-05T10:45:20.903Z,77.12
2022-08-05T10:46:06.443Z,77.51
2022-08-05T10:47:05.781Z,78.42
2022-08-05T10:48:30.295Z,77.95
2022-08-05T10:49:09.985Z,78.75
2022-08-05T10:50:20.820Z,79.22
2022-08-05T10:51:05.740Z,78.68
2022-08-05T10:52:10.608Z,76.95
2022-08-05T10:53:05.727Z,76.45
2022-08-05T10:54:28.300Z,76.61
2022-08-05T10:55:05.812Z,76.17
2022-08-05T10:56:21.546Z,74.08
2022-08-05T10:57:05.696Z,74.91
2022-08-05T10:58:05.672Z,75.15
2022-08-05T10:59:12.788Z,75.18
2022-08-05T11:00:09.876Z,76.38
2022-08-05T11:01:05.619Z,76.65
2022-08-05T11:02:05.778Z,76.84
2022-08-05T11:03:25.002Z,75.41
2022-08-05T11:04:05.593Z,74.11
2022-08-05T11:05:05.567Z,76.21
2022-08-05T11:06:05.560Z,75.07
2022-08-05T11:07:05.549Z,74.64
2022-08-05T11:08:27.492Z,73.71
2022-08-05T11:09:05.502Z,73.47
2022-08-05T11:10:09.908Z,71.55
2022-08-05T11:11:14.570Z,71.78
2022-08-05T11:12:05.486Z,69.96
2022-08-05T11:13:05.478Z,68.00
2022-08-05T11:14:05.463Z,70.29
2022-08-05T11:15:19.338Z,69.76
2022-08-05T11:16:05.470Z,71.05
2022-08-05T11:17:57.696Z,69.99
2022-08-05T11:18:05.872Z,72.18
2022-08-05T11:20:09.986Z,71.69
2022-08-05T11:20:22.256Z,70.06
2022-08-05T11:21:06.494Z,70.79
2022-08-05T11:22:05.358Z,70.36
2022-08-05T11:23:06.003Z,70.32
2022-08-05T11:24:29.995Z,68.90
2022-08-05T11:26:02.959Z,69.96
2022-08-05T11:26:10.962Z,69.76
2022-08-05T11:27:05.274Z,70.29
2022-08-05T11:28:05.286Z,69.82
2022-08-05T11:29:13.877Z,71.59
2022-08-05T11:30:05.278Z,72.05
2022-08-05T11:31:06.608Z,73.14
2022-08-05T11:32:05.229Z,73.61
2022-08-05T11:33:05.216Z,69.59
2022-08-05T11:34:05.234Z,71.78
2022-08-05T11:35:05.205Z,69.99
2022-08-05T11:36:08.690Z,70.42
2022-08-05T11:37:06.316Z,72.45
2022-08-05T11:38:37.332Z,71.22
2022-08-05T11:39:05.188Z,71.81
2022-08-05T11:40:05.331Z,71.35
2022-08-05T11:41:35.426Z,73.28
2022-08-05T11:42:05.726Z,72.68
2022-08-05T11:43:05.070Z,72.85
2022-08-05T11:44:08.109Z,72.65
2022-08-05T11:45:05.564Z,73.41
2022-08-05T11:46:16.164Z,71.02
2022-08-05T11:47:14.257Z,70.29
2022-08-05T11:48:05.031Z,71.19
2022-08-05T11:49:04.997Z,70.52
2022-08-05T11:50:04.995Z,71.72
2022-08-05T11:51:05.015Z,71.82
2022-08-05T11:52:08.664Z,73.78
2022-08-05T11:53:04.951Z,72.68
2022-08-05T11:54:05.052Z,71.95
2022-08-05T11:55:07.730Z,71.85
2022-08-05T11:56:04.938Z,71.75
2022-08-05T11:57:08.520Z,71.75
2022-08-05T11:58:09.810Z,71.89
2022-08-05T11:59:04.868Z,71.25
2022-08-05T12:00:04.866Z,71.85
2022-08-05T12:01:04.842Z,72.41
2022-08-05T12:02:04.873Z,70.89
2022-08-05T12:03:04.894Z,70.59
2022-08-05T12:04:04.835Z,69.76
2022-08-05T12:05:07.236Z,69.16
2022-08-05T12:06:06.560Z,69.59
2022-08-05T12:07:04.766Z,70.92
2022-08-05T12:08:09.629Z,71.98
2022-08-05T12:09:04.757Z,71.51
2022-08-05T12:10:09.170Z,72.02
2022-08-05T12:11:05.619Z,71.92
2022-08-05T12:12:04.740Z,72.68
2022-08-05T12:13:15.979Z,72.88
2022-08-05T12:14:04.733Z,74.15
2022-08-05T12:15:04.670Z,72.31
2022-08-05T12:16:04.681Z,70.49
2022-08-05T12:17:04.643Z,69.66
2022-08-05T12:18:10.766Z,69.36
2022-08-05T12:19:04.615Z,68.80
2022-08-05T12:20:26.796Z,65.39
2022-08-05T12:21:04.597Z,66.71
2022-08-05T12:22:04.590Z,67.11
2022-08-05T12:23:04.556Z,66.78
2022-08-05T12:24:06.923Z,65.72
2022-08-05T12:25:04.527Z,66.38
2022-08-05T12:26:04.531Z,66.28
2022-08-05T12:27:09.721Z,66.88
2022-08-05T12:28:04.518Z,65.61
2022-08-05T12:29:04.521Z,67.83
2022-08-05T12:30:04.480Z,67.33
2022-08-05T12:31:04.448Z,67.60
2022-08-05T12:32:04.683Z,67.11
2022-08-05T12:33:07.348Z,68.13
2022-08-05T12:34:04.450Z,69.66
2022-08-05T12:35:04.436Z,67.57
2022-08-05T12:36:07.196Z,68.20
2022-08-05T12:37:04.379Z,68.40
2022-08-05T12:38:04.390Z,67.44
2022-08-05T12:39:05.570Z,67.00
2022-08-05T12:40:10.690Z,65.88
2022-08-05T12:41:04.336Z,66.01
2022-08-05T12:42:04.392Z,66.41
2022-08-05T12:43:04.302Z,65.91
2022-08-05T12:44:04.381Z,66.31
2022-08-05T12:45:04.279Z,66.74
2022-08-05T12:46:04.315Z,67.93
2022-08-05T12:47:04.310Z,69.03
2022-08-05T12:48:17.278Z,67.50
2022-08-05T12:49:12.925Z,66.41
2022-08-05T12:50:06.233Z,65.94
2022-08-05T12:51:04.225Z,67.27
2022-08-05T12:52:12.603Z,67.40
2022-08-05T12:53:04.188Z,68.99
2022-08-05T12:54:04.183Z,68.63
2022-08-05T12:55:04.180Z,69.26
2022-08-05T12:56:04.215Z,69.56